AirNav   ATP
 
 329 users online  

15MA Canapitsit Airport
Gosnold, Massachusetts, USA

GOING TO GOSNOLD?


FAA INFORMATION EFFECTIVE 08 NOVEMBER 2018

Location

FAA Identifier: 15MA
Lat/Long: 41-25-20.3880N / 070-54-34.1240W
41-25.339800N / 070-54.568733W
41.4223300 / -70.9094789
(estimated)
Elevation: 10 ft. / 3 m (estimated)
Variation: 15W (1990)
From city: 1 mile E of GOSNOLD, MA
Time zone: UTC -5 (UTC -4 during Daylight Saving Time)
Zip code: 02713

Airport Operations

Airport use: Private use. Permission required prior to landing
Activation date: 01/1993
Control tower: no
ARTCC: BOSTON CENTER
FSS: BRIDGEPORT FLIGHT SERVICE STATION
Attendance: UNATNDD
Wind indicator: yes
Segmented circle: no

Airport Communications

WX ASOS at MVY (13 nm E): 126.25 (508-696-6988)
WX ASOS at EWB (15 nm N): PHONE 508-992-0195
WX ASOS at UUU (18 nm W): 132.075 (401-846-5910)

Nearby radio navigation aids

VOR radial/distance  VOR name  Freq  Var
MVYr292/13.4MARTHAS VINEYARD VOR/DME114.5015W
PVDr142/29.6PROVIDENCE VOR/DME115.6014W
SEYr078/33.7SANDY POINT VOR/DME117.8015W

 
NDB name  Hdg/Dist  Freq  Var  ID
TAUNTON186/27.622716WTAN - .- -.

Airport Services

Runway Information

Runway 12/30

Dimensions: 700 x 20 ft. / 213 x 6 m
Surface: turf
RUNWAY 12  RUNWAY 30
Traffic pattern: leftleft

Airport Ownership and Management from official FAA records

Ownership: Privately-owned
Owner: MELBOURNE S DORR
15 GILMORE RD
SOUTHBOROUGH, MA 01772
Phone 508-877-0030
Manager: MELBOURNE S DORR
15 GILMORE RD
SOUTHBOROUGH, MA 01772
Phone 508-877-0030

Additional Remarks

HIGH GRASS IN PRIMARY SURFACE OF BOTH RYS. HIGH DUNE IN RY 12 APCH.

Instrument Procedures

There are no published instrument procedures at 15MA.

Some nearby airports with instrument procedures:

KMVY - Martha's Vineyard Airport (13 nm E)
KEWB - New Bedford Regional Airport (15 nm N)
KUUU - Newport State Airport (18 nm W)
KFMH - Cape Cod Coast Guard Air Station (22 nm NE)
KOQU - Quonset State Airport (25 nm NW)
 
Loc | Ops | Rwys | IFR | FBO | Links
Com | Nav | Svcs | Stats | Notes


 
Area around 15MA (Canapitsit Airport)
 
Road maps at: MapQuest Bing Google
 
Aerial photo
No photo
 
Sectional chart

 
Airport distance calculator
Flying to Canapitsit Airport? Find the distance to fly.

From to 15MA

Sunrise and sunset
Times for 17-Nov-2018
 Local
(UTC-5)
 Zulu
(UTC)
Morning civil twilight06:0611:06
Sunrise06:3611:36
Sunset16:2221:22
Evening civil twilight16:5221:52

Current date and time
Zulu (UTC)  17-Nov-2018 09:51:18
Local (UTC-5)  17-Nov-2018 04:51:18
 
METAR
KMVY 
13nm E 
170853Z AUTO 28014G22KT 10SM FEW043 06/00 A2994 RMK AO2 SLP137 T00560000 53022
KEWB 
16nm N 
170853Z AUTO 25008KT 10SM FEW045 03/00 A2992 RMK AO2 SLP132 T00280000 51022
KUUU 
18nm W 
170853Z AUTO 25006KT 10SM OVC042 04/M01 A2994 RMK AO2 SLP139 T00391006 53025
KFMH 
22nm NE 
170935Z 25012KT 10SM SCT039 03/M00 A2995 RMK AO2
KOQU 
25nm NW 
170350Z 25006KT 10SM SKC A2983
TAF
KFMH 
22nm NE 
170520Z 1706/1806 26013KT P6SM FEW040 FM171500 28012G24KT P6SM FEW045 FM172200 27010KT P6SM FEW200
NOTAMs
Click for the latest NOTAMs
NOTAMs are issued by the DoD/FAA and will open in a separate window not controlled by AirNav.

 

 
 

Would you like to see your business listed on this page?

 If your business provides an interesting product or service to pilots, flight crews, aircraft, or users of the Canapitsit Airport, you should consider listing it here.  To start the listing process, click on the button below
 
Add a business
 

Other Pages about Canapitsit Airport

Update a link
 
Copyright © AirNav, LLC. All rights reserved. Privacy Policy  Contact